createdAt,value
2022-10-06T00:00:31.488Z,0.63
2022-10-06T00:02:58.034Z,0.50
2022-10-06T00:05:24.480Z,0.60
2022-10-06T00:07:51.014Z,0.75
2022-10-06T00:10:17.746Z,0.80
2022-10-06T00:12:46.942Z,1.00
2022-10-06T00:15:16.632Z,1.05
2022-10-06T00:17:43.039Z,0.65
2022-10-06T00:20:10.899Z,0.70
2022-10-06T00:22:43.433Z,0.68
2022-10-06T00:25:12.454Z,0.55
2022-10-06T00:30:11.364Z,0.50
2022-10-06T00:32:38.867Z,0.70
2022-10-06T00:35:06.762Z,0.82
2022-10-06T00:37:38.023Z,0.80
2022-10-06T00:40:09.766Z,0.80
2022-10-06T00:42:50.799Z,0.47
2022-10-06T00:45:20.412Z,1.15
2022-10-06T00:47:46.910Z,0.93
2022-10-06T00:50:15.001Z,0.75
2022-10-06T00:52:41.945Z,1.40
2022-10-06T00:55:11.674Z,0.85
2022-10-06T00:57:40.219Z,1.42
2022-10-06T01:00:08.812Z,1.75
2022-10-06T01:03:02.306Z,1.02
2022-10-06T01:05:32.200Z,0.82
2022-10-06T01:07:59.301Z,0.70
2022-10-06T01:10:25.762Z,0.95
2022-10-06T01:12:52.250Z,0.88
2022-10-06T01:15:21.463Z,0.93
2022-10-06T01:18:05.858Z,1.00
2022-10-06T01:20:33.919Z,0.80
2022-10-06T01:23:05.169Z,0.70
2022-10-06T01:25:34.049Z,0.80
2022-10-06T01:28:02.893Z,1.00
2022-10-06T01:30:52.754Z,1.10
2022-10-06T01:33:21.221Z,0.90
2022-10-06T01:35:50.364Z,1.60
2022-10-06T01:38:17.820Z,1.10
2022-10-06T01:40:44.866Z,0.93
2022-10-06T01:43:11.413Z,0.90
2022-10-06T01:45:37.795Z,1.10
2022-10-06T01:48:04.415Z,1.10
2022-10-06T01:50:31.111Z,1.25
2022-10-06T01:52:57.686Z,1.08
2022-10-06T01:55:25.085Z,1.00
2022-10-06T01:57:51.493Z,1.10
2022-10-06T02:00:18.183Z,1.38
2022-10-06T02:02:44.916Z,1.08
2022-10-06T02:05:12.087Z,1.20
2022-10-06T02:07:38.891Z,1.10
2022-10-06T02:10:06.763Z,1.00
2022-10-06T02:12:33.583Z,1.23
2022-10-06T02:15:00.039Z,1.02
2022-10-06T02:17:26.834Z,1.30
2022-10-06T02:19:53.199Z,1.02
2022-10-06T02:22:19.659Z,1.20
2022-10-06T02:24:46.043Z,1.17
2022-10-06T02:27:12.423Z,1.02
2022-10-06T02:29:38.847Z,1.05
2022-10-06T02:32:05.679Z,1.15
2022-10-06T02:34:33.009Z,1.30
2022-10-06T02:36:59.393Z,1.10
2022-10-06T02:39:26.847Z,1.50
2022-10-06T02:41:53.267Z,1.17
2022-10-06T02:44:19.663Z,1.38
2022-10-06T02:46:46.064Z,1.40
2022-10-06T02:49:13.295Z,0.88
2022-10-06T02:51:39.740Z,1.27
2022-10-06T02:54:06.138Z,1.60
2022-10-06T02:56:32.531Z,1.13
2022-10-06T02:58:59.000Z,1.10
2022-10-06T03:01:27.762Z,1.00
2022-10-06T03:03:54.420Z,1.00
2022-10-06T03:06:23.737Z,1.10
2022-10-06T03:09:01.065Z,1.23
2022-10-06T03:11:29.974Z,1.15
2022-10-06T03:13:57.110Z,1.33
2022-10-06T03:16:33.512Z,1.20
2022-10-06T03:19:01.215Z,1.40
2022-10-06T03:21:29.353Z,1.10
2022-10-06T03:23:57.620Z,1.05
2022-10-06T03:26:29.142Z,1.13
2022-10-06T03:28:56.250Z,0.93
2022-10-06T03:31:23.648Z,1.10
2022-10-06T03:33:51.071Z,1.27
2022-10-06T03:36:20.162Z,1.20
2022-10-06T03:41:15.556Z,1.00
2022-10-06T03:46:14.157Z,1.00
2022-10-06T03:48:41.548Z,1.40
2022-10-06T03:51:11.740Z,0.85
2022-10-06T03:53:38.324Z,1.10
2022-10-06T03:56:08.520Z,1.20
2022-10-06T03:58:37.048Z,1.13
2022-10-06T04:01:06.440Z,1.30
2022-10-06T04:03:33.500Z,1.20
2022-10-06T04:06:02.226Z,1.40
2022-10-06T04:08:30.848Z,1.27
2022-10-06T04:11:31.614Z,1.27
2022-10-06T04:14:00.784Z,1.15
2022-10-06T04:16:31.023Z,1.10
2022-10-06T04:18:59.650Z,1.10
2022-10-06T04:21:27.871Z,1.35
2022-10-06T04:23:56.243Z,1.55
2022-10-06T04:26:25.399Z,1.60
2022-10-06T04:31:22.240Z,0.88
2022-10-06T04:33:52.228Z,1.20
2022-10-06T04:36:29.963Z,1.30
2022-10-06T04:38:58.823Z,1.27
2022-10-06T04:41:27.907Z,1.77
2022-10-06T04:49:13.305Z,1.02
2022-10-06T04:51:44.401Z,1.15
2022-10-06T04:54:11.045Z,2.15
2022-10-06T04:56:37.437Z,0.90
2022-10-06T04:59:04.135Z,1.17
2022-10-06T05:01:33.272Z,1.40
2022-10-06T05:04:01.199Z,1.42
2022-10-06T05:06:35.628Z,1.30
2022-10-06T05:09:04.841Z,1.33
2022-10-06T05:11:31.849Z,1.30
2022-10-06T05:13:58.970Z,1.27
2022-10-06T05:16:27.517Z,1.45
2022-10-06T05:18:54.077Z,1.65
2022-10-06T05:21:22.889Z,1.70
2022-10-06T05:23:49.751Z,1.85
2022-10-06T05:26:19.225Z,1.50
2022-10-06T05:28:45.843Z,1.48
2022-10-06T05:31:18.126Z,1.30
2022-10-06T05:33:44.840Z,1.27
2022-10-06T05:36:17.009Z,1.48
2022-10-06T05:38:44.703Z,1.40
2022-10-06T05:41:15.567Z,1.05
2022-10-06T05:43:42.316Z,1.20
2022-10-06T05:46:20.225Z,1.40
2022-10-06T05:48:51.952Z,1.30
2022-10-06T05:51:20.360Z,1.20
2022-10-06T05:53:48.465Z,1.50
2022-10-06T05:56:18.027Z,1.55
2022-10-06T05:58:46.749Z,1.55
2022-10-06T06:01:18.539Z,1.33
2022-10-06T06:03:56.104Z,1.23
2022-10-06T06:06:31.208Z,1.40
2022-10-06T06:09:06.660Z,1.48
2022-10-06T06:11:34.384Z,1.38
2022-10-06T06:14:03.196Z,1.02
2022-10-06T06:16:33.641Z,1.40
2022-10-06T06:19:01.233Z,1.55
2022-10-06T06:21:29.071Z,1.40
2022-10-06T06:23:56.086Z,1.67
2022-10-06T06:26:31.568Z,1.52
2022-10-06T06:29:02.661Z,1.80
2022-10-06T06:31:32.447Z,1.35
2022-10-06T06:34:00.387Z,1.35
2022-10-06T06:36:31.908Z,1.27
2022-10-06T06:38:58.869Z,1.73
2022-10-06T06:41:28.012Z,1.40
2022-10-06T06:46:25.856Z,1.52
2022-10-06T06:48:53.664Z,1.63
2022-10-06T06:51:24.230Z,1.85
2022-10-06T06:53:52.615Z,1.95
2022-10-06T06:56:23.227Z,1.58
2022-10-06T06:58:50.110Z,2.42
2022-10-06T07:01:19.595Z,1.17
2022-10-06T07:03:57.530Z,1.70
2022-10-06T07:06:28.693Z,1.73
2022-10-06T07:08:57.076Z,2.00
2022-10-06T07:11:35.115Z,1.50
2022-10-06T07:14:09.726Z,1.40
2022-10-06T07:16:55.012Z,2.25
2022-10-06T07:19:40.640Z,1.58
2022-10-06T07:22:25.533Z,1.73
2022-10-06T07:25:08.315Z,1.13
2022-10-06T07:27:47.143Z,1.77
2022-10-06T07:30:19.043Z,1.40
2022-10-06T07:32:47.369Z,1.40
2022-10-06T07:35:13.952Z,2.00
2022-10-06T07:37:40.654Z,1.70
2022-10-06T07:40:08.047Z,2.00
2022-10-06T07:42:48.106Z,1.75
2022-10-06T07:45:38.720Z,1.63
2022-10-06T07:48:10.640Z,1.33
2022-10-06T07:50:41.241Z,2.03
2022-10-06T07:53:12.002Z,1.48
2022-10-06T07:55:40.220Z,1.85
2022-10-06T07:58:23.955Z,1.70
2022-10-06T08:00:52.980Z,1.42
2022-10-06T08:03:21.129Z,1.60
2022-10-06T08:05:58.139Z,1.60
2022-10-06T08:08:25.211Z,2.08
2022-10-06T08:10:53.965Z,1.50
2022-10-06T08:13:21.160Z,1.70
2022-10-06T08:15:51.272Z,2.08
2022-10-06T08:18:40.973Z,1.63
2022-10-06T08:21:13.831Z,2.10
2022-10-06T08:26:14.225Z,1.98
2022-10-06T08:28:45.226Z,2.17
2022-10-06T08:31:11.866Z,1.77
2022-10-06T08:33:39.657Z,1.75
2022-10-06T08:36:11.384Z,1.67
2022-10-06T08:38:38.620Z,1.70
2022-10-06T08:41:23.228Z,1.92
2022-10-06T08:44:15.812Z,1.60
2022-10-06T08:46:52.504Z,1.40
2022-10-06T08:49:21.943Z,1.67
2022-10-06T08:52:10.739Z,1.40
2022-10-06T08:54:58.865Z,1.75
2022-10-06T08:57:36.874Z,1.60
2022-10-06T09:00:13.619Z,1.48
2022-10-06T09:02:47.385Z,1.98
2022-10-06T09:05:25.113Z,1.80
2022-10-06T09:08:20.786Z,1.75
2022-10-06T09:11:20.688Z,2.60
2022-10-06T09:13:53.716Z,1.35
2022-10-06T09:16:28.804Z,1.40
2022-10-06T09:19:15.502Z,2.10
2022-10-06T09:21:51.179Z,1.85
2022-10-06T09:24:24.990Z,2.30
2022-10-06T09:26:52.786Z,1.40
2022-10-06T09:29:19.263Z,2.03
2022-10-06T09:31:50.893Z,2.08
2022-10-06T09:34:42.779Z,2.10
2022-10-06T09:37:13.300Z,1.90
2022-10-06T09:39:44.830Z,1.58
2022-10-06T09:42:23.782Z,1.55
2022-10-06T09:44:51.017Z,1.75
2022-10-06T09:47:47.294Z,1.73
2022-10-06T09:50:22.597Z,2.65
2022-10-06T09:52:59.159Z,1.77
2022-10-06T09:55:28.838Z,2.08
2022-10-06T09:57:57.226Z,1.75
2022-10-06T10:00:48.778Z,2.10
2022-10-06T10:03:15.984Z,1.67
2022-10-06T10:05:51.365Z,1.65
2022-10-06T10:08:18.160Z,1.60
2022-10-06T10:10:44.807Z,2.08
2022-10-06T10:13:26.374Z,1.95
2022-10-06T10:15:58.954Z,2.05
2022-10-06T10:18:28.844Z,1.88
2022-10-06T10:21:08.337Z,1.67
2022-10-06T10:23:43.199Z,1.80
2022-10-06T10:26:21.315Z,2.13
2022-10-06T10:28:56.100Z,2.05
2022-10-06T10:31:25.578Z,1.80
2022-10-06T10:34:12.097Z,1.70
2022-10-06T10:36:50.776Z,1.77
2022-10-06T10:39:41.867Z,1.85
2022-10-06T10:42:25.281Z,1.73
2022-10-06T10:45:00.179Z,1.70
2022-10-06T10:47:27.444Z,2.03
2022-10-06T10:50:29.258Z,1.50
2022-10-06T10:53:09.166Z,1.25
2022-10-06T10:55:45.682Z,1.63
2022-10-06T10:58:36.844Z,1.60
2022-10-06T11:01:12.381Z,1.40
2022-10-06T11:03:38.941Z,1.40
2022-10-06T11:06:28.717Z,1.63
2022-10-06T11:09:02.812Z,1.58
2022-10-06T11:11:38.363Z,1.67
2022-10-06T11:14:16.090Z,1.50
2022-10-06T11:17:19.756Z,1.30
2022-10-06T11:19:56.302Z,1.10
2022-10-06T11:22:59.753Z,1.60
2022-10-06T11:25:48.789Z,1.23
2022-10-06T11:28:40.369Z,1.30
2022-10-06T11:31:40.774Z,1.55
2022-10-06T11:34:10.078Z,1.40
2022-10-06T11:36:45.785Z,1.30
2022-10-06T11:39:20.597Z,1.60
2022-10-06T11:42:16.336Z,1.33
2022-10-06T11:44:46.764Z,1.55
2022-10-06T11:47:35.160Z,1.10
2022-10-06T11:50:02.764Z,1.20
2022-10-06T11:52:29.184Z,1.08
2022-10-06T11:55:07.735Z,1.30
2022-10-06T11:57:55.037Z,1.40
2022-10-06T12:00:21.541Z,1.10
2022-10-06T12:02:48.815Z,1.90
2022-10-06T12:05:53.972Z,1.23
2022-10-06T12:08:01.966Z,1.70
2022-10-06T12:10:28.454Z,1.20
2022-10-06T12:13:39.994Z,1.30
2022-10-06T12:19:15.839Z,1.05
2022-10-06T12:21:47.596Z,1.27
2022-10-06T12:24:28.115Z,1.27
2022-10-06T12:27:28.461Z,0.98
2022-10-06T12:30:03.534Z,0.88
2022-10-06T12:32:42.400Z,0.98
2022-10-06T12:35:30.203Z,1.10
2022-10-06T12:38:00.602Z,1.20
2022-10-06T12:40:40.421Z,1.42
2022-10-06T12:43:35.124Z,1.00
2022-10-06T12:46:07.587Z,1.10
2022-10-06T12:48:37.629Z,1.00
2022-10-06T12:51:06.902Z,1.40
2022-10-06T12:53:58.913Z,1.10
2022-10-06T12:56:38.236Z,1.50
2022-10-06T12:59:39.986Z,1.10
2022-10-06T13:02:17.523Z,1.23
2022-10-06T13:04:59.441Z,1.25
2022-10-06T13:07:29.420Z,1.15
2022-10-06T13:10:14.447Z,1.70
2022-10-06T13:12:46.634Z,1.15
2022-10-06T13:15:35.514Z,1.52
2022-10-06T13:18:01.960Z,1.27
2022-10-06T13:20:35.604Z,1.08
2022-10-06T13:23:35.530Z,1.40
2022-10-06T13:26:17.247Z,1.30
2022-10-06T13:28:43.666Z,1.15
2022-10-06T13:31:20.983Z,1.10
2022-10-06T13:33:59.600Z,1.20
2022-10-06T13:36:28.587Z,1.45
2022-10-06T13:38:55.701Z,1.40
2022-10-06T13:41:31.000Z,1.40
2022-10-06T13:44:18.849Z,1.25
2022-10-06T13:46:54.876Z,1.50
2022-10-06T13:49:28.600Z,1.60
2022-10-06T13:52:00.298Z,1.40
2022-10-06T13:54:45.426Z,1.30
2022-10-06T13:57:34.928Z,1.35
2022-10-06T14:00:22.318Z,1.30
2022-10-06T14:02:54.820Z,1.13
2022-10-06T14:05:26.888Z,1.50
2022-10-06T14:08:02.678Z,1.55
2022-10-06T14:10:36.956Z,1.50
2022-10-06T14:13:07.835Z,1.20
2022-10-06T14:15:59.566Z,1.48
2022-10-06T14:18:37.167Z,1.25
2022-10-06T14:21:41.878Z,1.40
2022-10-06T14:24:18.890Z,1.25
2022-10-06T14:26:49.745Z,1.20
2022-10-06T14:29:17.600Z,1.42
2022-10-06T14:31:45.337Z,1.17
2022-10-06T14:34:17.103Z,1.38
2022-10-06T14:36:46.016Z,1.00
2022-10-06T14:39:14.758Z,1.00
2022-10-06T14:41:42.043Z,1.20
2022-10-06T14:44:11.479Z,1.23
2022-10-06T14:46:39.702Z,1.00
2022-10-06T14:49:07.539Z,1.33
2022-10-06T14:51:37.112Z,1.13
2022-10-06T14:54:04.810Z,1.25
2022-10-06T14:56:33.551Z,1.83
2022-10-06T14:59:04.042Z,1.10
2022-10-06T15:01:31.320Z,1.30
2022-10-06T15:04:05.817Z,1.30
2022-10-06T15:06:50.830Z,1.13
2022-10-06T15:09:17.333Z,1.00
2022-10-06T15:11:44.345Z,1.23
2022-10-06T15:14:10.813Z,1.27
2022-10-06T15:16:40.762Z,1.10
2022-10-06T15:19:07.871Z,1.50
2022-10-06T15:21:35.099Z,1.30
2022-10-06T15:24:04.036Z,1.52
2022-10-06T15:26:50.580Z,1.17
2022-10-06T15:29:17.748Z,1.38
2022-10-06T15:31:46.558Z,1.25
2022-10-06T15:34:14.675Z,1.15
2022-10-06T15:36:42.763Z,1.38
2022-10-06T15:39:14.482Z,1.33
2022-10-06T15:41:43.032Z,1.45
2022-10-06T15:44:11.203Z,1.40
2022-10-06T15:46:40.469Z,1.40
2022-10-06T15:49:09.702Z,1.27
2022-10-06T15:51:50.100Z,1.70
2022-10-06T15:54:19.607Z,1.17
2022-10-06T15:56:47.673Z,1.60
2022-10-06T15:59:15.217Z,1.10
2022-10-06T16:01:47.336Z,1.33
2022-10-06T16:04:20.433Z,1.35
2022-10-06T16:06:50.790Z,1.48
2022-10-06T16:09:18.910Z,1.30
2022-10-06T16:11:47.062Z,1.38
2022-10-06T16:14:14.985Z,1.33
2022-10-06T16:16:43.880Z,1.10
2022-10-06T16:19:11.066Z,1.30
2022-10-06T16:21:39.212Z,1.30
2022-10-06T16:24:06.054Z,1.35
2022-10-06T16:26:33.485Z,1.13
2022-10-06T16:29:00.312Z,1.30
2022-10-06T16:31:27.450Z,1.35
2022-10-06T16:33:54.082Z,1.48
2022-10-06T16:36:21.351Z,0.98
2022-10-06T16:38:52.715Z,1.20
2022-10-06T16:41:20.133Z,1.20
2022-10-06T16:43:48.087Z,1.20
2022-10-06T16:46:18.224Z,1.20
2022-10-06T16:48:47.206Z,1.20
2022-10-06T16:51:14.948Z,1.48
2022-10-06T16:53:46.572Z,1.05
2022-10-06T16:56:34.082Z,1.20
2022-10-06T16:59:06.634Z,1.13
2022-10-06T17:01:35.962Z,1.20
2022-10-06T17:04:08.713Z,1.15
2022-10-06T17:06:39.189Z,1.70
2022-10-06T17:09:11.859Z,1.13
2022-10-06T17:11:38.596Z,1.30
2022-10-06T17:14:05.797Z,1.05
2022-10-06T17:16:36.384Z,0.75
2022-10-06T17:19:03.585Z,1.00
2022-10-06T17:21:45.690Z,1.00
2022-10-06T17:24:14.557Z,1.10
2022-10-06T17:26:42.638Z,1.30
2022-10-06T17:29:15.549Z,1.00
2022-10-06T17:31:43.086Z,0.93
2022-10-06T17:34:12.485Z,0.98
2022-10-06T17:36:41.502Z,0.93
2022-10-06T17:41:38.045Z,1.10
2022-10-06T17:44:07.852Z,1.10
2022-10-06T17:46:38.878Z,0.80
2022-10-06T17:49:07.957Z,1.00
2022-10-06T17:51:36.563Z,1.38
2022-10-06T17:54:05.550Z,1.13
2022-10-06T17:59:07.426Z,1.02
2022-10-06T18:01:35.854Z,1.10
2022-10-06T18:04:04.783Z,1.08
2022-10-06T18:06:33.712Z,1.08
2022-10-06T18:09:02.934Z,0.90
2022-10-06T18:11:38.310Z,0.93
2022-10-06T18:14:11.609Z,1.15
2022-10-06T18:16:42.430Z,1.00
2022-10-06T18:19:11.499Z,1.25
2022-10-06T18:24:19.573Z,1.08
2022-10-06T18:26:48.378Z,1.08
2022-10-06T18:29:17.003Z,1.10
2022-10-06T18:31:44.373Z,1.10
2022-10-06T18:36:59.292Z,0.80
2022-10-06T18:39:25.860Z,1.55
2022-10-06T18:41:52.798Z,0.90
2022-10-06T18:44:39.285Z,0.93
2022-10-06T18:47:24.782Z,1.08
2022-10-06T18:49:52.993Z,1.10
2022-10-06T18:52:21.590Z,1.33
2022-10-06T18:54:49.450Z,1.10
2022-10-06T18:57:16.108Z,1.00
2022-10-06T18:59:42.778Z,0.93
2022-10-06T19:02:10.447Z,1.45
2022-10-06T19:04:37.347Z,1.38
2022-10-06T19:07:04.190Z,1.27
2022-10-06T19:09:31.155Z,1.00
2022-10-06T19:11:58.265Z,1.73
2022-10-06T19:14:32.827Z,1.00
2022-10-06T19:17:06.706Z,1.17
2022-10-06T19:19:34.179Z,1.02
2022-10-06T19:22:02.759Z,1.60
2022-10-06T19:24:44.095Z,0.95
2022-10-06T19:27:13.583Z,1.40
2022-10-06T19:29:45.676Z,1.30
2022-10-06T19:32:16.223Z,1.10
2022-10-06T19:34:43.818Z,1.17
2022-10-06T19:37:10.406Z,1.00
2022-10-06T19:39:42.623Z,1.05
2022-10-06T19:42:32.565Z,0.95
2022-10-06T19:44:59.742Z,0.90
2022-10-06T19:47:28.133Z,1.00
2022-10-06T19:49:58.936Z,1.40
2022-10-06T19:52:27.447Z,0.82
2022-10-06T19:54:54.089Z,1.23
2022-10-06T19:57:20.976Z,0.93
2022-10-06T19:59:47.668Z,0.98
2022-10-06T20:02:14.463Z,0.88
2022-10-06T20:04:41.195Z,1.02
2022-10-06T20:07:09.191Z,1.17
2022-10-06T20:09:35.713Z,1.40
2022-10-06T20:12:02.722Z,1.27
2022-10-06T20:14:29.417Z,1.20
2022-10-06T20:16:56.959Z,1.25
2022-10-06T20:19:25.523Z,1.33
2022-10-06T20:21:52.989Z,1.20
2022-10-06T20:24:24.557Z,1.40
2022-10-06T20:26:52.524Z,1.30
2022-10-06T20:29:22.898Z,1.08
2022-10-06T20:31:51.867Z,1.20
2022-10-06T20:34:21.477Z,1.13
2022-10-06T20:36:51.930Z,1.27
2022-10-06T20:39:41.231Z,1.20
2022-10-06T20:42:12.186Z,1.23
2022-10-06T20:44:42.392Z,1.20
2022-10-06T20:47:10.288Z,1.27
2022-10-06T20:49:37.668Z,1.13
2022-10-06T20:52:05.563Z,1.13
2022-10-06T20:54:35.043Z,0.90
2022-10-06T20:57:04.420Z,1.02
2022-10-06T21:02:00.002Z,1.17
2022-10-06T21:04:30.075Z,1.17
2022-10-06T21:06:57.365Z,1.40
2022-10-06T21:09:28.527Z,1.80
2022-10-06T21:11:57.284Z,1.25
2022-10-06T21:14:23.826Z,1.52
2022-10-06T21:16:50.812Z,1.42
2022-10-06T21:19:19.142Z,1.27
2022-10-06T21:21:49.755Z,1.50
2022-10-06T21:24:16.503Z,1.50
2022-10-06T21:26:43.007Z,1.23
2022-10-06T21:29:12.900Z,1.27
2022-10-06T21:31:39.807Z,1.10
2022-10-06T21:34:06.594Z,1.27
2022-10-06T21:36:33.197Z,1.23
2022-10-06T21:39:06.529Z,1.23
2022-10-06T21:41:38.392Z,1.30
2022-10-06T21:44:16.601Z,1.20
2022-10-06T21:46:46.684Z,1.50
2022-10-06T21:49:15.411Z,1.40
2022-10-06T21:51:45.643Z,1.30
2022-10-06T21:54:12.476Z,1.30
2022-10-06T21:56:39.908Z,1.30
2022-10-06T21:59:07.114Z,1.40
2022-10-06T22:01:39.427Z,1.33
2022-10-06T22:04:06.194Z,1.38
2022-10-06T22:06:35.637Z,1.25
2022-10-06T22:09:03.275Z,1.20
2022-10-06T22:11:32.794Z,1.42
2022-10-06T22:14:01.632Z,1.67
2022-10-06T22:16:31.869Z,1.38
2022-10-06T22:18:58.602Z,1.60
2022-10-06T22:21:30.630Z,1.40
2022-10-06T22:23:58.194Z,1.33
2022-10-06T22:26:27.096Z,1.40
2022-10-06T22:28:56.949Z,1.40
2022-10-06T22:31:26.229Z,1.45
2022-10-06T22:33:58.032Z,1.40
2022-10-06T22:36:25.686Z,1.83
2022-10-06T22:38:52.295Z,1.83
2022-10-06T22:41:19.288Z,1.73
2022-10-06T22:43:45.896Z,1.77
2022-10-06T22:46:13.772Z,2.10
2022-10-06T22:48:40.643Z,1.55
2022-10-06T22:51:07.488Z,1.90
2022-10-06T22:53:34.229Z,2.30
2022-10-06T22:56:03.814Z,1.77
2022-10-06T22:58:30.457Z,1.75
2022-10-06T23:00:57.095Z,1.45
2022-10-06T23:03:23.919Z,1.77
2022-10-06T23:05:55.471Z,1.50
2022-10-06T23:08:22.292Z,1.77
2022-10-06T23:10:48.697Z,1.67
2022-10-06T23:13:15.220Z,1.83
2022-10-06T23:15:41.655Z,1.75
2022-10-06T23:18:08.212Z,2.10
2022-10-06T23:20:34.947Z,2.03
2022-10-06T23:23:01.464Z,2.47
2022-10-06T23:25:28.089Z,1.98
2022-10-06T23:27:54.544Z,2.38
2022-10-06T23:30:21.075Z,1.75
2022-10-06T23:32:47.679Z,1.52
2022-10-06T23:35:14.151Z,2.53
2022-10-06T23:37:40.795Z,1.75
2022-10-06T23:40:07.817Z,2.33
2022-10-06T23:42:34.245Z,2.05
2022-10-06T23:45:00.658Z,2.00
2022-10-06T23:47:27.134Z,2.03
2022-10-06T23:49:54.174Z,1.73
2022-10-06T23:52:20.570Z,2.53
2022-10-06T23:54:47.794Z,2.50
2022-10-06T23:57:14.346Z,2.80
2022-10-06T23:59:40.839Z,2.72
